Time;durP1;ratioP1;P1;durP2;ratioP2;P2;SDS_P1;SDS_P2;PMS_P1;PMS_P2;Temp;Humidity;BMP_temperature;BMP_pressure;BME280_temperature;BME280_humidity;BME280_pressure;Samples;Min_cycle;Max_cycle;Signal;HPM_P1;HPM_P2
2021/05/01 00:01:55;;;;;;;24.13;14.48;;;;;;;4.93;71.57;99647.11;232993;1174;115031;-65
2021/05/01 00:06:59;;;;;;;17.93;12.73;;;;;;;4.90;71.76;99664.17;233135;1173;115677;-63
2021/05/01 00:12:03;;;;;;;14.55;12.63;;;;;;;4.89;71.83;99680.24;233217;1168;115255;-62
2021/05/01 00:17:07;;;;;;;19.53;15.75;;;;;;;4.88;73.02;99700.56;232978;1172;115331;-63
2021/05/01 00:22:12;;;;;;;30.23;18.47;;;;;;;4.96;72.16;99666.02;233560;1167;115914;-64
2021/05/01 00:27:16;;;;;;;33.53;17.63;;;;;;;5.03;72.55;99677.42;233962;1173;115853;-64
2021/05/01 00:32:19;;;;;;;11.45;9.33;;;;;;;5.03;72.28;99687.17;233663;1173;115530;-65
2021/05/01 00:37:22;;;;;;;22.78;13.85;;;;;;;5.03;72.62;99682.70;233777;1174;118525;-64
2021/05/01 00:42:25;;;;;;;45.75;24.90;;;;;;;5.14;72.74;99672.56;234163;1173;115916;-64
2021/05/01 00:47:29;;;;;;;59.18;37.80;;;;;;;5.23;73.07;99661.58;233195;1168;115355;-64
2021/05/01 00:52:33;;;;;;;50.58;34.60;;;;;;;5.36;73.16;99655.51;234204;1174;115595;-64
2021/05/01 00:57:37;;;;;;;46.57;28.97;;;;;;;5.43;72.79;99664.26;234346;1172;115583;-63
2021/05/01 01:02:42;;;;;;;45.35;27.78;;;;;;;5.52;73.51;99652.44;234303;1173;115502;-62
2021/05/01 01:07:46;;;;;;;44.38;25.23;;;;;;;5.54;72.63;99660.17;234618;1173;115411;-64
2021/05/01 01:12:49;;;;;;;24.83;19.48;;;;;;;5.52;73.48;99667.49;235181;1173;115680;-64
2021/05/01 01:17:52;;;;;;;39.40;28.20;;;;;;;5.56;73.47;99687.23;235185;1173;115124;-65
2021/05/01 01:22:55;;;;;;;29.30;21.03;;;;;;;5.70;73.16;99689.68;235306;1173;116001;-64
2021/05/01 01:28:00;;;;;;;32.00;21.58;;;;;;;5.78;73.40;99696.60;234530;1172;115583;-64
2021/05/01 01:33:06;;;;;;;33.95;21.00;;;;;;;5.85;72.88;99685.98;234205;1170;115876;-63
2021/05/01 01:38:10;;;;;;;30.43;23.13;;;;;;;5.86;73.05;99693.72;233579;1173;115992;-63
2021/05/01 01:43:14;;;;;;;32.50;21.13;;;;;;;5.87;73.25;99679.48;233632;1173;116157;-65
2021/05/01 01:48:18;;;;;;;34.00;20.55;;;;;;;5.87;73.10;99678.66;233836;1173;115636;-65
2021/05/01 01:53:23;;;;;;;31.10;20.23;;;;;;;5.83;73.24;99653.64;233635;1173;115139;-64
2021/05/01 01:58:27;;;;;;;32.38;20.68;;;;;;;5.81;73.83;99660.99;233532;1172;115912;-63
2021/05/01 02:03:30;;;;;;;29.20;17.65;;;;;;;5.79;73.73;99660.38;233883;1173;115595;-61
2021/05/01 02:08:34;;;;;;;35.60;21.57;;;;;;;5.79;73.49;99661.20;233763;1174;117035;-63
2021/05/01 02:13:37;;;;;;;36.73;22.50;;;;;;;5.82;73.92;99650.17;233589;1173;115919;-62
2021/05/01 02:18:40;;;;;;;39.57;21.53;;;;;;;5.86;74.51;99658.52;233040;1173;117308;-63
2021/05/01 02:23:43;;;;;;;39.47;20.80;;;;;;;5.92;73.93;99645.32;232932;1173;115657;-64
2021/05/01 02:28:46;;;;;;;31.75;19.78;;;;;;;5.96;74.08;99648.37;233444;1172;115878;-63
2021/05/01 02:33:49;;;;;;;40.20;23.98;;;;;;;5.98;74.38;99635.75;233142;1173;116597;-64
2021/05/01 02:38:53;;;;;;;37.60;22.78;;;;;;;5.93;74.25;99627.61;233601;1172;116567;-63
2021/05/01 02:43:57;;;;;;;51.68;24.58;;;;;;;6.01;74.59;99640.63;233331;1174;115940;-63
2021/05/01 02:49:00;;;;;;;46.50;22.55;;;;;;;6.09;74.29;99637.77;233734;1173;116446;-64
2021/05/01 02:54:05;;;;;;;52.48;22.63;;;;;;;6.11;74.35;99638.38;233445;1173;116319;-63
2021/05/01 02:59:09;;;;;;;58.33;27.43;;;;;;;6.09;74.46;99643.06;232736;1174;116398;-63
2021/05/01 03:04:12;;;;;;;54.90;24.53;;;;;;;6.09;74.38;99624.53;233535;1173;116139;-62
2021/05/01 03:09:15;;;;;;;51.35;26.38;;;;;;;6.13;73.90;99622.25;233460;1173;115382;-64
2021/05/01 03:14:17;;;;;;;50.68;26.40;;;;;;;6.14;74.23;99621.23;234725;1173;114893;-62
2021/05/01 03:19:22;;;;;;;45.27;23.37;;;;;;;6.14;74.28;99632.64;235322;1173;115008;-63
2021/05/01 03:24:25;;;;;;;38.13;23.45;;;;;;;6.26;74.44;99643.40;234799;1172;115691;-62
2021/05/01 03:29:29;;;;;;;39.00;21.35;;;;;;;6.35;74.61;99627.08;234184;1174;115854;-62
2021/05/01 03:34:32;;;;;;;35.10;20.83;;;;;;;6.35;74.35;99626.27;233944;1172;115625;-63
2021/05/01 03:39:35;;;;;;;32.53;18.55;;;;;;;6.33;74.04;99630.95;232920;1174;115663;-65
2021/05/01 03:44:39;;;;;;;30.77;20.27;;;;;;;6.26;74.62;99625.69;233197;1172;115416;-63
2021/05/01 03:49:42;;;;;;;34.55;20.03;;;;;;;6.29;73.89;99627.91;234376;1174;116914;-63
2021/05/01 03:54:46;;;;;;;34.97;20.17;;;;;;;6.37;74.54;99630.34;234535;1173;116442;-64
2021/05/01 03:59:50;;;;;;;25.90;18.73;;;;;;;6.45;74.78;99634.56;234122;1172;115890;-63
2021/05/01 04:04:53;;;;;;;30.83;18.95;;;;;;;6.50;74.84;99636.58;233428;1174;116546;-63
2021/05/01 04:09:57;;;;;;;32.88;22.83;;;;;;;6.60;74.63;99618.41;233411;1174;116468;-63
2021/05/01 04:15:00;;;;;;;28.95;19.58;;;;;;;6.65;74.88;99635.30;232774;1173;116489;-63
2021/05/01 04:20:06;;;;;;;34.03;19.80;;;;;;;6.69;74.56;99635.69;232744;1173;115767;-62
2021/05/01 04:25:11;;;;;;;29.10;21.10;;;;;;;6.75;74.35;99637.47;233622;1173;115992;-63
2021/05/01 04:30:16;;;;;;;33.20;20.45;;;;;;;6.76;73.93;99636.45;232703;1174;116720;-62
2021/05/01 04:35:19;;;;;;;33.00;20.50;;;;;;;6.76;74.90;99639.91;232970;1173;115442;-63
2021/05/01 04:40:23;;;;;;;26.33;16.15;;;;;;;6.74;74.94;99631.36;233702;1174;114906;-62
2021/05/01 04:45:28;;;;;;;29.30;20.05;;;;;;;6.79;74.64;99635.21;233753;1174;116234;-61
2021/05/01 04:50:33;;;;;;;35.50;19.50;;;;;;;6.87;75.10;99643.73;233752;1173;115801;-63
2021/05/01 04:55:37;;;;;;;30.10;19.93;;;;;;;6.95;74.44;99638.19;234516;1174;116174;-63
2021/05/01 05:00:40;;;;;;;35.43;19.27;;;;;;;7.01;74.48;99642.64;233873;1173;115875;-62
2021/05/01 05:05:44;;;;;;;37.03;21.13;;;;;;;7.14;74.15;99649.67;232889;1167;116959;-62
2021/05/01 05:10:48;;;;;;;32.08;20.65;;;;;;;7.24;74.47;99654.52;234228;1173;116906;-62
2021/05/01 05:15:53;;;;;;;34.80;21.50;;;;;;;7.30;74.66;99653.66;235430;1173;116026;-62
2021/05/01 05:20:58;;;;;;;32.05;20.45;;;;;;;7.35;74.28;99661.75;234507;1170;135608;-61
2021/05/01 05:26:02;;;;;;;30.48;20.40;;;;;;;7.50;74.33;99662.26;235428;1174;116176;-63
2021/05/01 05:31:06;;;;;;;37.43;23.38;;;;;;;7.67;73.61;99665.98;235061;1173;115349;-62
2021/05/01 05:36:10;;;;;;;34.28;20.98;;;;;;;7.80;73.79;99669.55;234028;1173;115313;-63
2021/05/01 05:41:12;;;;;;;34.33;23.02;;;;;;;7.91;74.04;99676.81;233899;1172;115209;-63
2021/05/01 05:46:17;;;;;;;38.65;22.20;;;;;;;8.04;74.21;99679.33;234496;1172;115524;-62
2021/05/01 05:51:21;;;;;;;30.85;19.80;;;;;;;8.08;73.78;99670.70;233467;1174;115060;-63
2021/05/01 05:56:25;;;;;;;29.58;19.13;;;;;;;8.06;73.11;99667.45;233700;1168;114878;-63
2021/05/01 06:01:33;;;;;;;32.00;21.35;;;;;;;8.05;73.03;99670.33;233859;1173;115209;-63
2021/05/01 06:06:42;;;;;;;35.65;20.08;;;;;;;8.01;72.47;99669.95;233339;1173;115562;-61
2021/05/01 06:11:47;;;;;;;31.15;18.40;;;;;;;7.96;73.05;99672.45;233174;1173;115321;-63
2021/05/01 06:16:52;;;;;;;31.40;19.45;;;;;;;7.96;72.87;99669.80;233005;1173;117170;-63
2021/05/01 06:21:57;;;;;;;29.90;19.08;;;;;;;7.99;73.25;99668.55;233266;1173;115476;-63
2021/05/01 06:27:02;;;;;;;34.53;20.25;;;;;;;8.04;73.02;99674.02;232680;1173;115156;-64
2021/05/01 06:32:10;;;;;;;27.90;18.93;;;;;;;8.10;73.39;99678.45;233325;1172;116417;-62
2021/05/01 06:37:16;;;;;;;27.48;18.68;;;;;;;8.10;73.61;99673.14;233061;1173;115656;-61
2021/05/01 06:42:25;;;;;;;23.40;16.30;;;;;;;8.11;73.61;99677.42;234040;1173;116562;-64
2021/05/01 06:47:31;;;;;;;26.63;18.78;;;;;;;8.17;72.94;99687.17;233235;1173;115116;-65
2021/05/01 06:52:40;;;;;;;33.00;21.30;;;;;;;8.20;73.71;99691.23;233572;1174;114962;-66
2021/05/01 06:57:49;;;;;;;34.45;21.83;;;;;;;8.20;73.97;99680.61;233581;1173;118050;-63
2021/05/01 07:03:09;;;;;;;25.47;16.40;;;;;;;8.26;73.87;99688.48;234918;1173;116719;-63
2021/05/01 07:08:12;;;;;;;26.53;18.18;;;;;;;8.31;72.95;99677.20;234687;1173;115839;-64
2021/05/01 07:13:20;;;;;;;34.63;19.75;;;;;;;8.27;73.16;99678.67;235241;1173;115229;-65
2021/05/01 07:18:22;;;;;;;27.13;16.57;;;;;;;8.23;73.60;99678.33;235260;1167;115376;-65
2021/05/01 07:23:26;;;;;;;18.08;14.15;;;;;;;8.21;74.18;99691.02;235249;1173;115023;-64
2021/05/01 07:28:35;;;;;;;27.08;18.50;;;;;;;8.25;74.19;99686.89;233587;1174;115588;-64
2021/05/01 07:33:51;;;;;;;28.58;18.78;;;;;;;8.32;73.98;99678.83;233874;1173;115888;-64
2021/05/01 07:38:57;;;;;;;30.58;18.95;;;;;;;8.29;74.46;99674.77;233523;1173;116004;-63
2021/05/01 07:44:01;;;;;;;26.60;18.78;;;;;;;8.27;74.55;99673.36;233569;1174;115820;-65
2021/05/01 07:49:06;;;;;;;28.23;19.05;;;;;;;8.33;74.35;99668.02;232753;1173;115896;-65
2021/05/01 07:54:11;;;;;;;30.05;19.88;;;;;;;8.43;74.15;99672.81;233447;1172;116169;-66
2021/05/01 07:59:14;;;;;;;35.00;22.55;;;;;;;8.59;74.71;99671.39;233978;1167;215522;-67
2021/05/01 08:04:17;;;;;;;17.60;12.15;;;;;;;8.64;74.39;99672.34;232954;1171;115318;-66
2021/05/01 08:09:20;;;;;;;32.10;22.50;;;;;;;8.70;73.91;99662.67;232563;1173;115389;-64
2021/05/01 08:14:23;;;;;;;36.65;23.83;;;;;;;8.75;73.87;99668.95;232917;1173;115396;-66
2021/05/01 08:19:27;;;;;;;38.80;24.73;;;;;;;8.81;73.55;99674.41;233124;1172;115542;-64
2021/05/01 08:24:30;;;;;;;35.20;21.75;;;;;;;8.80;73.61;99668.27;233629;1172;115390;-66
2021/05/01 08:29:34;;;;;;;35.00;25.03;;;;;;;8.84;74.41;99681.93;233383;1173;115477;-66
2021/05/01 08:34:37;;;;;;;36.03;23.28;;;;;;;8.85;74.28;99684.36;233147;1173;115559;-65
2021/05/01 08:39:44;;;;;;;32.70;19.85;;;;;;;8.80;74.34;99691.38;232963;1167;115802;-64
2021/05/01 08:44:48;;;;;;;28.40;19.50;;;;;;;8.81;74.36;99677.88;234638;1173;116739;-66
2021/05/01 08:49:51;;;;;;;29.40;21.83;;;;;;;8.75;74.04;99705.34;234234;1173;115233;-64
2021/05/01 08:54:54;;;;;;;28.85;19.73;;;;;;;8.65;74.07;99705.86;232878;1173;117941;-66
2021/05/01 08:59:57;;;;;;;28.75;21.08;;;;;;;8.61;73.33;99701.20;234125;1173;116345;-64
2021/05/01 09:05:03;;;;;;;32.30;20.10;;;;;;;8.60;73.83;99691.61;234444;1168;115585;-63
2021/05/01 09:10:07;;;;;;;34.83;21.77;;;;;;;8.61;74.40;99693.23;234966;1172;116306;-65
2021/05/01 09:15:35;;;;;;;36.43;23.38;;;;;;;8.61;74.76;99690.58;238024;1173;115031;-65
2021/05/01 09:20:38;;;;;;;39.58;25.40;;;;;;;8.61;74.25;99687.92;237379;1173;114803;-65
2021/05/01 09:31:20;;;;;;;32.80;22.13;;;;;;;8.62;73.66;99686.88;236148;1168;116006;-65
2021/05/01 09:36:26;;;;;;;30.65;19.60;;;;;;;8.64;74.64;99688.29;234450;1177;116441;-69
2021/05/01 09:41:41;;;;;;;33.45;22.60;;;;;;;8.65;74.81;99673.16;234982;1179;114998;-67
2021/05/01 09:46:45;;;;;;;33.77;19.83;;;;;;;8.63;74.52;99677.88;234938;1171;114943;-66
2021/05/01 09:52:03;;;;;;;37.55;25.20;;;;;;;8.64;74.64;99671.53;234830;1173;115914;-65
2021/05/01 09:57:08;;;;;;;33.35;20.75;;;;;;;8.84;74.99;99674.77;235470;1177;115556;-66
2021/05/01 10:02:15;;;;;;;31.85;20.00;;;;;;;8.94;74.45;99660.91;234582;1177;115607;-66
2021/05/01 10:07:20;;;;;;;31.05;19.60;;;;;;;9.04;75.02;99667.32;236785;1176;114980;-66
2021/05/01 10:12:35;;;;;;;33.17;24.40;;;;;;;9.14;74.04;99660.66;234581;1177;114931;-65
2021/05/01 10:17:38;;;;;;;35.90;21.83;;;;;;;9.35;74.67;99662.78;235188;1177;115482;-66
2021/05/01 10:22:46;;;;;;;39.47;22.90;;;;;;;9.47;74.21;99668.95;234796;1177;116571;-65
2021/05/01 10:27:57;;;;;;;25.17;18.53;;;;;;;9.57;74.14;99645.22;235358;1177;115095;-66
2021/05/01 10:33:10;;;;;;;36.63;21.53;;;;;;;9.63;73.43;99622.20;235054;1177;114994;-66
2021/05/01 10:38:18;;;;;;;39.33;23.40;;;;;;;9.60;72.70;99612.83;235868;1179;115790;-66
2021/05/01 10:43:26;;;;;;;28.37;19.60;;;;;;;9.68;73.28;99609.83;237186;1177;114992;-64
2021/05/01 10:48:28;;;;;;;38.13;23.70;;;;;;;9.90;72.61;99626.02;235672;1177;115977;-66
2021/05/01 10:53:31;;;;;;;30.67;18.30;;;;;;;9.97;72.91;99625.89;235118;1178;115533;-66
2021/05/01 10:58:44;;;;;;;36.30;21.47;;;;;;;9.75;72.24;99626.50;237373;1179;115172;-63
2021/05/01 11:03:48;;;;;;;36.13;22.53;;;;;;;9.68;72.89;99617.81;237384;1177;115024;-64
2021/05/01 11:09:06;;;;;;;33.93;22.27;;;;;;;9.65;72.39;99631.58;237252;1177;114685;-64
2021/05/01 11:14:47;;;;;;;30.75;21.25;;;;;;;9.71;72.20;99640.50;234887;1179;116779;-65
2021/05/01 11:19:57;;;;;;;32.43;22.63;;;;;;;9.64;72.31;99624.63;235590;1177;115500;-66
2021/05/01 11:25:15;;;;;;;44.63;26.38;;;;;;;9.76;72.45;99617.47;237112;1177;115055;-64
2021/05/01 11:30:20;;;;;;;32.65;19.40;;;;;;;9.73;72.81;99625.11;236500;1179;115475;-64
2021/05/01 11:35:26;;;;;;;32.05;20.85;;;;;;;9.81;72.50;99616.75;234704;1179;137988;-66
2021/05/01 11:40:32;;;;;;;33.28;22.63;;;;;;;9.97;71.99;99633.89;234830;1173;115412;-66
2021/05/01 11:45:39;;;;;;;29.77;20.17;;;;;;;10.08;71.88;99638.40;234970;1180;115402;-66
2021/05/01 11:50:47;;;;;;;24.30;19.07;;;;;;;10.14;71.86;99638.25;234472;1179;115344;-66
2021/05/01 11:55:57;;;;;;;32.95;21.05;;;;;;;10.34;71.41;99627.26;235896;1179;136031;-66
2021/05/01 12:01:21;;;;;;;23.50;19.50;;;;;;;10.35;71.99;99642.20;234646;1180;115176;-66
2021/05/01 12:06:48;;;;;;;27.47;17.83;;;;;;;10.18;71.50;99641.26;234666;1179;115643;-66
2021/05/01 12:11:56;;;;;;;28.97;20.63;;;;;;;10.12;70.98;99663.50;234496;1178;116373;-66
2021/05/01 12:17:11;;;;;;;30.85;20.65;;;;;;;10.00;71.68;99662.72;235056;1178;115306;-66
2021/05/01 12:22:30;;;;;;;38.70;24.83;;;;;;;9.92;72.24;99658.55;235322;1179;116396;-66
2021/05/01 12:27:50;;;;;;;34.87;24.23;;;;;;;9.91;72.33;99659.58;235783;1177;115014;-66
2021/05/01 12:32:53;;;;;;;32.37;21.77;;;;;;;9.89;71.55;99644.88;235586;1177;116150;-66
2021/05/01 12:37:59;;;;;;;32.15;22.93;;;;;;;10.01;72.16;99632.38;234538;1180;115185;-66
2021/05/01 12:43:29;;;;;;;36.27;24.50;;;;;;;10.13;71.79;99623.31;234537;1180;115815;-67
2021/05/01 12:48:54;;;;;;;31.58;20.80;;;;;;;10.45;71.27;99621.06;237128;1170;115710;-64
2021/05/01 12:53:59;;;;;;;23.63;16.47;;;;;;;11.13;71.56;99620.19;236463;1178;115081;-64
2021/05/01 12:59:18;;;;;;;22.03;16.73;;;;;;;11.54;70.33;99633.40;237272;1177;116005;-65
2021/05/01 13:04:36;;;;;;;17.90;12.55;;;;;;;11.57;69.70;99624.91;237358;1177;115251;-64
2021/05/01 13:09:48;;;;;;;25.57;16.67;;;;;;;11.60;69.31;99622.56;236337;1178;116405;-64
2021/05/01 13:15:02;;;;;;;21.43;16.63;;;;;;;11.54;69.15;99626.20;237272;1177;115331;-65
2021/05/01 13:20:07;;;;;;;18.13;14.67;;;;;;;11.34;68.89;99621.33;236086;1179;115937;-64
2021/05/01 13:25:13;;;;;;;22.17;18.63;;;;;;;11.33;68.87;99619.70;236601;1178;116232;-64
2021/05/01 13:30:28;;;;;;;25.83;17.90;;;;;;;11.38;68.50;99606.45;235531;1177;115400;-64
2021/05/01 13:35:32;;;;;;;17.65;13.30;;;;;;;11.44;68.44;99597.48;235205;1170;115028;-66
2021/05/01 13:40:38;;;;;;;19.25;16.80;;;;;;;11.37;68.03;99593.34;234700;1179;115915;-66
2021/05/01 13:45:49;;;;;;;22.93;17.97;;;;;;;11.49;67.38;99588.74;235358;1170;115341;-66
2021/05/01 13:50:53;;;;;;;22.40;15.73;;;;;;;11.59;68.01;99594.24;234896;1179;115929;-65
2021/05/01 13:55:56;;;;;;;16.65;13.35;;;;;;;11.55;67.82;99593.11;234533;1178;115858;-67
2021/05/01 14:01:00;;;;;;;22.23;15.10;;;;;;;11.50;67.85;99605.56;235663;1179;115213;-66
2021/05/01 14:06:04;;;;;;;22.63;16.90;;;;;;;11.52;67.44;99598.94;234873;1177;116441;-67
2021/05/01 14:11:12;;;;;;;17.65;15.75;;;;;;;11.56;67.03;99593.92;235522;1178;115377;-66
2021/05/01 14:16:16;;;;;;;22.05;16.63;;;;;;;11.45;67.07;99591.09;235393;1179;115422;-66
2021/05/01 14:21:26;;;;;;;23.40;17.00;;;;;;;11.57;67.31;99574.99;235473;1178;115165;-66
2021/05/01 14:26:29;;;;;;;25.95;18.98;;;;;;;11.66;67.11;99584.18;234466;1179;115829;-66
2021/05/01 14:31:33;;;;;;;24.47;16.63;;;;;;;11.64;67.11;99583.61;235502;1179;114809;-66
2021/05/01 14:36:37;;;;;;;26.25;13.65;;;;;;;11.43;67.09;99579.03;235098;1179;115896;-66
2021/05/01 14:41:40;;;;;;;24.77;18.90;;;;;;;11.35;67.38;99574.91;236393;1179;115008;-64
2021/05/01 14:46:44;;;;;;;24.00;18.28;;;;;;;11.41;67.32;99562.45;236698;1177;115360;-64
2021/05/01 14:52:01;;;;;;;28.03;18.07;;;;;;;11.47;67.34;99562.30;237338;1171;115391;-64
2021/05/01 14:57:06;;;;;;;27.70;19.75;;;;;;;11.40;67.04;99555.50;235121;1179;115351;-66
2021/05/01 15:02:12;;;;;;;20.43;14.13;;;;;;;11.29;67.16;99551.89;237362;1177;114923;-64
2021/05/01 15:07:15;;;;;;;31.10;21.00;;;;;;;11.31;67.10;99567.66;237330;1177;116891;-64
2021/05/01 15:12:19;;;;;;;30.97;22.37;;;;;;;11.35;67.53;99571.44;235215;1177;115224;-66
2021/05/01 15:17:45;;;;;;;19.10;14.10;;;;;;;11.24;66.63;99565.15;236486;1177;114901;-66
2021/05/01 15:22:50;;;;;;;24.07;16.10;;;;;;;11.09;66.83;99565.70;235735;1180;115195;-64
2021/05/01 15:27:53;;;;;;;22.70;17.65;;;;;;;10.98;66.77;99561.27;234592;1178;115304;-66
2021/05/01 15:32:58;;;;;;;22.60;18.70;;;;;;;10.89;66.91;99564.56;234796;1177;115850;-66
2021/05/01 15:38:02;;;;;;;26.00;17.50;;;;;;;10.82;67.27;99556.70;236000;1178;115448;-66
2021/05/01 15:43:06;;;;;;;23.80;18.43;;;;;;;10.75;66.84;99546.19;235261;1180;115481;-66
2021/05/01 15:48:11;;;;;;;27.30;20.50;;;;;;;10.66;66.75;99541.51;235454;1179;116215;-66
2021/05/01 15:53:17;;;;;;;31.60;19.10;;;;;;;10.67;66.95;99537.80;234711;1178;115245;-65
2021/05/01 15:58:22;;;;;;;26.10;18.53;;;;;;;10.61;67.60;99534.23;235685;1177;115802;-66
2021/05/01 16:03:29;;;;;;;24.00;18.00;;;;;;;10.55;67.34;99545.84;234944;1178;115277;-65
2021/05/01 16:08:34;;;;;;;22.87;17.10;;;;;;;10.43;67.87;99543.21;234750;1179;116342;-65
2021/05/01 16:13:40;;;;;;;19.27;16.43;;;;;;;10.33;68.32;99537.71;235169;1179;115853;-66
2021/05/01 16:18:44;;;;;;;23.53;17.50;;;;;;;10.27;68.14;99537.84;234997;1177;115224;-66
2021/05/01 16:23:47;;;;;;;21.30;15.75;;;;;;;10.26;68.14;99541.55;234829;1177;115326;-65
2021/05/01 16:28:50;;;;;;;16.65;13.73;;;;;;;10.22;67.52;99527.90;235658;1177;115016;-65
2021/05/01 16:33:54;;;;;;;16.90;11.25;;;;;;;10.16;68.35;99525.34;234940;1177;115171;-65
2021/05/01 16:38:58;;;;;;;24.55;19.10;;;;;;;10.17;68.50;99514.45;234344;1178;115354;-66
2021/05/01 16:44:04;;;;;;;26.40;18.50;;;;;;;10.17;68.25;99517.11;235898;1179;115233;-65
2021/05/01 16:49:11;;;;;;;23.38;14.75;;;;;;;10.12;68.31;99525.81;236492;1177;114985;-63
2021/05/01 16:54:15;;;;;;;27.10;17.03;;;;;;;10.03;68.21;99515.78;234646;1177;115218;-65
2021/05/01 16:59:20;;;;;;;30.08;19.68;;;;;;;10.01;68.64;99517.88;237409;1177;115526;-64
2021/05/01 17:04:24;;;;;;;23.85;18.08;;;;;;;9.99;68.61;99503.98;237378;1177;115200;-63
2021/05/01 17:09:27;;;;;;;22.00;17.60;;;;;;;10.00;69.04;99500.27;237350;1177;115776;-64
2021/05/01 17:14:29;;;;;;;27.30;20.20;;;;;;;9.97;68.55;99503.41;237272;1178;115429;-64
2021/05/01 17:19:33;;;;;;;23.60;18.33;;;;;;;9.96;68.98;99504.45;235860;1171;116135;-64
2021/05/01 17:24:38;;;;;;;21.40;18.15;;;;;;;9.92;68.97;99513.95;234749;1180;114908;-65
2021/05/01 17:29:41;;;;;;;20.25;15.65;;;;;;;9.88;69.22;99513.61;236146;1178;115229;-66
2021/05/01 17:34:45;;;;;;;21.55;17.23;;;;;;;9.77;69.30;99523.26;235605;1178;115644;-66
2021/05/01 17:39:48;;;;;;;22.20;17.27;;;;;;;9.76;69.45;99536.80;234938;1170;114931;-65
2021/05/01 17:44:50;;;;;;;21.15;15.45;;;;;;;9.73;69.61;99531.94;235834;1179;115508;-65
2021/05/01 17:49:54;;;;;;;17.28;14.80;;;;;;;9.67;70.26;99540.86;236053;1179;115077;-65
2021/05/01 17:54:56;;;;;;;20.55;17.55;;;;;;;9.60;69.99;99548.95;234985;1179;115793;-66
2021/05/01 17:59:59;;;;;;;24.10;17.20;;;;;;;9.52;70.95;99541.31;234690;1171;115034;-65
2021/05/01 18:05:02;;;;;;;27.57;19.67;;;;;;;9.51;70.69;99560.17;235329;1180;115603;-66
2021/05/01 18:10:07;;;;;;;31.00;16.63;;;;;;;9.48;70.96;99561.44;234448;1178;115463;-65
2021/05/01 18:15:12;;;;;;;26.55;17.85;;;;;;;9.39;70.98;99562.85;235517;1179;114924;-66
2021/05/01 18:20:16;;;;;;;21.60;15.97;;;;;;;9.31;71.58;99566.66;234644;1180;115477;-65
2021/05/01 18:25:19;;;;;;;26.13;18.00;;;;;;;9.28;71.09;99556.48;235056;1179;115422;-65
2021/05/01 18:30:22;;;;;;;23.90;18.40;;;;;;;9.25;71.54;99556.94;234410;1178;115483;-65
2021/05/01 18:35:28;;;;;;;22.40;17.00;;;;;;;9.21;72.11;99554.96;234808;1180;115899;-65
2021/05/01 18:40:37;;;;;;;23.35;15.65;;;;;;;9.11;72.36;99561.67;235946;1180;114751;-66
2021/05/01 18:45:40;;;;;;;22.60;16.70;;;;;;;9.10;72.00;99545.95;235746;1180;115420;-65
2021/05/01 18:50:43;;;;;;;20.77;17.00;;;;;;;9.10;72.02;99549.42;234892;1178;115893;-65
2021/05/01 18:55:46;;;;;;;23.90;16.00;;;;;;;9.04;72.20;99552.98;234836;1179;115280;-66
2021/05/01 19:00:50;;;;;;;30.83;19.60;;;;;;;8.98;72.34;99569.04;236553;1180;115032;-66
2021/05/01 19:05:53;;;;;;;19.90;15.65;;;;;;;8.99;72.32;99562.69;236557;1180;115498;-63
2021/05/01 19:10:56;;;;;;;24.40;17.67;;;;;;;8.96;72.88;99565.80;237238;1177;115456;-63
2021/05/01 19:15:59;;;;;;;22.37;16.93;;;;;;;8.87;73.09;99554.67;237258;1177;115711;-64
2021/05/01 19:21:03;;;;;;;20.80;15.20;;;;;;;8.85;72.79;99561.28;235857;1177;115933;-66
2021/05/01 19:26:08;;;;;;;23.93;18.93;;;;;;;8.86;72.44;99558.40;236206;1178;115560;-65
2021/05/01 19:31:12;;;;;;;27.93;19.40;;;;;;;8.88;73.68;99550.16;235892;1179;115190;-65
2021/05/01 19:36:16;;;;;;;23.30;17.23;;;;;;;8.82;73.39;99553.77;237262;1178;115682;-64
2021/05/01 19:41:20;;;;;;;31.10;18.40;;;;;;;8.69;72.82;99541.47;235105;1178;114932;-66
2021/05/01 19:46:25;;;;;;;24.20;17.70;;;;;;;8.72;73.96;99541.83;235549;1179;115443;-66
2021/05/01 19:51:29;;;;;;;20.80;16.10;;;;;;;8.61;73.25;99539.13;235130;1178;115178;-65
2021/05/01 19:56:33;;;;;;;27.37;19.73;;;;;;;8.48;73.14;99524.20;234722;1178;115999;-66
2021/05/01 20:01:36;;;;;;;30.73;19.57;;;;;;;8.39;73.19;99533.52;235027;1177;115330;-66
2021/05/01 20:06:39;;;;;;;26.05;18.13;;;;;;;8.33;73.45;99526.44;235292;1178;114825;-66
2021/05/01 20:17:12;;;;;;;23.88;17.08;;;;;;;8.29;74.23;99498.68;233549;1170;116193;-66
2021/05/01 20:22:18;;;;;;;28.60;19.23;;;;;;;8.29;74.53;99466.81;232862;1177;115109;-64
2021/05/01 20:27:21;;;;;;;31.70;20.83;;;;;;;8.25;74.32;99470.98;232755;1177;115007;-66
2021/05/01 20:32:28;;;;;;;37.07;21.00;;;;;;;8.20;73.89;99462.88;232058;1175;114962;-64
2021/05/01 20:37:33;;;;;;;27.75;20.50;;;;;;;8.02;73.83;99469.84;232699;1177;115619;-66
2021/05/01 20:42:40;;;;;;;28.40;19.20;;;;;;;7.88;74.30;99481.67;232922;1177;115427;-65
2021/05/01 20:47:44;;;;;;;27.30;17.90;;;;;;;7.82;74.28;99485.21;232212;1177;115200;-66
2021/05/01 20:52:49;;;;;;;30.63;19.53;;;;;;;7.77;74.52;99487.72;232935;1177;115353;-66
2021/05/01 20:57:52;;;;;;;34.20;19.95;;;;;;;7.74;74.70;99502.23;232979;1177;116092;-67
2021/05/01 21:02:56;;;;;;;24.83;18.18;;;;;;;7.88;75.10;99494.13;232882;1178;116430;-69
2021/05/01 21:07:59;;;;;;;33.20;20.95;;;;;;;7.98;75.32;99481.93;232033;1177;116074;-67
2021/05/01 21:13:02;;;;;;;25.87;19.57;;;;;;;7.98;75.41;99478.47;233383;1177;116216;-68
2021/05/01 21:18:05;;;;;;;26.80;20.20;;;;;;;7.95;75.79;99471.76;233442;1178;116637;-69
2021/05/01 21:23:09;;;;;;;36.83;23.73;;;;;;;7.98;75.15;99465.19;233658;1177;116956;-69
2021/05/01 21:28:13;;;;;;;51.65;30.33;;;;;;;7.93;75.55;99457.93;234650;1177;116052;-67
2021/05/01 21:33:17;;;;;;;42.85;24.30;;;;;;;7.87;75.25;99458.01;234614;1177;115686;-67
2021/05/01 21:38:21;;;;;;;29.17;23.10;;;;;;;7.90;75.06;99463.69;234650;1177;116311;-65
2021/05/01 21:43:24;;;;;;;20.75;17.70;;;;;;;7.93;75.12;99462.42;234711;1177;117776;-66
2021/05/01 21:48:27;;;;;;;29.08;18.80;;;;;;;7.86;75.26;99459.04;234647;1177;116580;-65
2021/05/01 21:53:32;;;;;;;27.90;20.95;;;;;;;7.84;75.32;99443.34;233881;1178;116373;-65
2021/05/01 21:58:35;;;;;;;27.27;17.37;;;;;;;7.91;75.42;99438.77;233528;1177;115203;-66
2021/05/01 22:03:41;;;;;;;30.35;21.70;;;;;;;7.98;75.34;99426.19;233724;1175;116185;-65
2021/05/01 22:08:44;;;;;;;36.63;26.23;;;;;;;8.00;75.33;99423.31;232118;1177;116664;-64
2021/05/01 22:13:51;;;;;;;30.60;21.68;;;;;;;8.09;76.11;99424.63;233002;1177;115555;-65
2021/05/01 22:24:15;;;;;;;;;;;;;;;8.13;76.70;99420.48;232804;1177;115927;-67
2021/05/01 22:29:20;;;;;;;34.25;23.40;;;;;;;8.14;76.96;99422.11;233880;1177;103450;-67
2021/05/01 22:34:24;;;;;;;33.53;23.30;;;;;;;8.19;76.14;99430.20;232817;1177;116927;-68
2021/05/01 22:39:28;;;;;;;27.80;19.30;;;;;;;8.17;76.42;99426.97;232995;1177;117012;-69
2021/05/01 22:44:32;;;;;;;31.73;21.37;;;;;;;8.13;76.59;99409.87;232907;1177;116430;-67
2021/05/01 22:49:36;;;;;;;31.25;22.25;;;;;;;8.15;76.66;99383.90;232219;1177;116377;-68
2021/05/01 22:54:41;;;;;;;37.45;25.55;;;;;;;8.20;77.07;99378.72;233220;1174;116333;-66
2021/05/01 22:59:45;;;;;;;29.37;18.23;;;;;;;8.17;76.89;99359.78;232651;1177;116832;-65
2021/05/01 23:04:50;;;;;;;32.85;22.80;;;;;;;8.18;76.94;99350.78;232744;1177;115886;-66
2021/05/01 23:09:54;;;;;;;37.37;22.67;;;;;;;8.19;76.99;99344.44;232758;1177;117128;-64
2021/05/01 23:14:58;;;;;;;39.33;25.97;;;;;;;8.15;77.62;99327.34;233542;1177;115476;-65
2021/05/01 23:20:03;;;;;;;44.45;29.88;;;;;;;8.12;77.31;99307.36;232249;1177;116772;-66